In Rescue
 
Open Full Screen Window  High Contrast Mode
September 19, 2019 4:51 PM EDT
Weather Information
Wind Direction
  ---
Wind Speed
  00 kt (0 mph)
Wind Gust
  00 kt (0 mph)
Altimeter
30.06 in
Visibility
10 SM
Temperature
24° C
75° F
Dewpoint
16° C
61° F
Humidity
61%
Sky Condition
Clear
VFR

METAR KFKS 192051Z AUTO 00000KT 10SM CLR 24/16 A3006 RMK AO2 T02360155

FAA Disclaimer: The data displayed is for advisory purposes only and is not to be used for flight planning or operations.